createdAt,value
2023-01-30T00:01:45.538Z,64.26
2023-01-30T00:04:16.107Z,64.13
2023-01-30T00:06:44.583Z,63.75
2023-01-30T00:09:17.486Z,63.96
2023-01-30T00:11:44.530Z,64.37
2023-01-30T00:14:11.471Z,64.48
2023-01-30T00:16:38.509Z,64.33
2023-01-30T00:19:05.548Z,64.45
2023-01-30T00:21:32.531Z,63.86
2023-01-30T00:24:01.071Z,63.74
2023-01-30T00:26:28.313Z,64.10
2023-01-30T00:28:55.305Z,64.21
2023-01-30T00:31:23.165Z,64.67
2023-01-30T00:33:50.576Z,64.76
2023-01-30T00:36:17.525Z,64.57
2023-01-30T00:38:44.482Z,65.30
2023-01-30T00:41:13.754Z,64.81
2023-01-30T00:44:00.216Z,64.78
2023-01-30T00:46:51.173Z,64.38
2023-01-30T00:49:19.899Z,64.22
2023-01-30T00:51:46.959Z,64.13
2023-01-30T00:54:14.190Z,64.61
2023-01-30T00:56:41.166Z,64.24
2023-01-30T00:59:08.166Z,64.71
2023-01-30T01:01:35.257Z,64.11
2023-01-30T01:04:02.287Z,64.45
2023-01-30T01:06:29.440Z,64.67
2023-01-30T01:08:56.961Z,64.48
2023-01-30T01:11:24.678Z,64.81
2023-01-30T01:14:00.773Z,64.92
2023-01-30T01:16:30.223Z,64.72
2023-01-30T01:18:59.105Z,65.53
2023-01-30T01:21:26.099Z,65.14
2023-01-30T01:23:58.136Z,64.93
2023-01-30T01:26:25.998Z,64.75
2023-01-30T01:28:57.169Z,65.20
2023-01-30T01:31:24.732Z,65.12
2023-01-30T01:33:52.162Z,64.55
2023-01-30T01:36:42.429Z,64.73
2023-01-30T01:39:06.432Z,64.64
2023-01-30T01:41:33.529Z,65.15
2023-01-30T01:44:07.252Z,64.94
2023-01-30T01:46:40.421Z,64.68
2023-01-30T01:49:25.025Z,65.00
2023-01-30T01:51:55.190Z,64.73
2023-01-30T01:54:36.285Z,64.82
2023-01-30T01:57:12.055Z,65.28
2023-01-30T01:59:46.774Z,65.02
2023-01-30T02:02:17.055Z,65.49
2023-01-30T02:05:02.453Z,65.28
2023-01-30T02:07:52.567Z,65.32
2023-01-30T02:10:23.432Z,65.29
2023-01-30T02:12:51.972Z,64.68
2023-01-30T02:15:21.353Z,64.63
2023-01-30T02:17:48.603Z,64.55
2023-01-30T02:20:32.422Z,65.10
2023-01-30T02:23:08.201Z,64.88
2023-01-30T02:25:44.407Z,64.56
2023-01-30T02:28:49.486Z,65.54
2023-01-30T02:31:36.859Z,65.16
2023-01-30T02:34:10.420Z,65.43
2023-01-30T02:36:58.783Z,65.74
2023-01-30T02:39:33.630Z,65.61
2023-01-30T02:42:12.139Z,66.02
2023-01-30T02:44:51.131Z,65.37
2023-01-30T02:47:25.721Z,66.05
2023-01-30T02:50:02.559Z,65.99
2023-01-30T02:52:31.599Z,66.15
2023-01-30T02:54:58.633Z,65.58
2023-01-30T02:57:27.362Z,65.99
2023-01-30T03:00:02.773Z,65.84
2023-01-30T03:02:52.183Z,66.16
2023-01-30T03:05:43.409Z,66.28
2023-01-30T03:08:28.762Z,66.09
2023-01-30T03:11:03.506Z,65.88
2023-01-30T03:13:59.136Z,66.29
2023-01-30T03:16:33.343Z,65.77
2023-01-30T03:19:01.761Z,65.96
2023-01-30T03:21:28.762Z,66.08
2023-01-30T03:23:55.746Z,65.61
2023-01-30T03:26:31.121Z,65.64
2023-01-30T03:28:58.590Z,65.34
2023-01-30T03:31:25.688Z,65.26
2023-01-30T03:33:52.747Z,65.87
2023-01-30T03:36:19.843Z,65.98
2023-01-30T03:38:46.973Z,65.72
2023-01-30T03:41:14.067Z,65.61
2023-01-30T03:43:41.191Z,65.34
2023-01-30T03:46:08.262Z,65.80
2023-01-30T03:48:35.278Z,65.86
2023-01-30T03:51:02.270Z,66.10
2023-01-30T03:53:29.728Z,66.13
2023-01-30T03:55:56.672Z,65.47
2023-01-30T03:58:30.124Z,65.87
2023-01-30T04:00:58.897Z,65.44
2023-01-30T04:03:26.502Z,65.92
2023-01-30T04:05:57.682Z,65.46
2023-01-30T04:08:24.673Z,65.85
2023-01-30T04:10:51.699Z,65.60
2023-01-30T04:13:18.862Z,65.17
2023-01-30T04:15:45.950Z,65.56
2023-01-30T04:18:33.873Z,65.43
2023-01-30T04:21:11.089Z,65.55
2023-01-30T04:23:39.663Z,65.98
2023-01-30T04:26:08.633Z,66.01
2023-01-30T04:28:38.377Z,66.12
2023-01-30T04:31:05.603Z,65.23
2023-01-30T04:33:58.402Z,65.84
2023-01-30T04:36:25.406Z,65.62
2023-01-30T04:38:53.327Z,65.84
2023-01-30T04:41:21.624Z,65.93
2023-01-30T04:43:49.392Z,65.41
2023-01-30T04:46:35.067Z,66.28
2023-01-30T04:49:02.133Z,65.95
2023-01-30T04:51:29.229Z,65.92
2023-01-30T04:53:57.777Z,66.39
2023-01-30T04:56:24.867Z,66.06
2023-01-30T04:58:53.177Z,66.43
2023-01-30T05:01:31.545Z,65.94
2023-01-30T05:03:59.248Z,65.92
2023-01-30T05:06:26.743Z,65.70
2023-01-30T05:08:55.919Z,65.98
2023-01-30T05:11:24.587Z,65.49
2023-01-30T05:13:51.840Z,65.50
2023-01-30T05:16:20.454Z,66.25
2023-01-30T05:18:47.794Z,65.35
2023-01-30T05:21:25.510Z,65.88
2023-01-30T05:23:53.723Z,65.67
2023-01-30T05:26:20.846Z,65.56
2023-01-30T05:28:53.124Z,65.64
2023-01-30T05:31:21.408Z,65.82
2023-01-30T05:33:49.714Z,65.90
2023-01-30T05:36:19.027Z,66.33
2023-01-30T05:38:46.411Z,66.09
2023-01-30T05:41:15.352Z,65.82
2023-01-30T05:43:42.681Z,66.12
2023-01-30T05:46:12.729Z,65.22
2023-01-30T05:48:39.905Z,65.65
2023-01-30T05:51:07.131Z,66.09
2023-01-30T05:53:35.263Z,65.98
2023-01-30T05:56:05.354Z,66.25
2023-01-30T05:58:33.330Z,65.77
2023-01-30T06:01:05.442Z,65.64
2023-01-30T06:03:32.580Z,66.15
2023-01-30T06:06:01.800Z,66.00
2023-01-30T06:08:29.241Z,66.14
2023-01-30T06:11:03.604Z,65.88
2023-01-30T06:13:30.885Z,65.48
2023-01-30T06:15:58.211Z,65.91
2023-01-30T06:18:25.575Z,65.59
2023-01-30T06:20:53.563Z,65.69
2023-01-30T06:23:23.575Z,65.81
2023-01-30T06:25:52.319Z,66.11
2023-01-30T06:28:20.276Z,65.44
2023-01-30T06:30:47.384Z,65.31
2023-01-30T06:33:14.820Z,65.61
2023-01-30T06:35:43.045Z,65.94
2023-01-30T06:38:11.654Z,66.40
2023-01-30T06:40:38.993Z,66.23
2023-01-30T06:43:06.232Z,65.77
2023-01-30T06:45:33.857Z,65.95
2023-01-30T06:48:00.843Z,65.53
2023-01-30T06:50:29.014Z,65.67
2023-01-30T06:52:56.838Z,66.17
2023-01-30T06:55:26.512Z,65.54
2023-01-30T06:58:13.307Z,65.81
2023-01-30T07:00:42.457Z,65.88
2023-01-30T07:03:17.576Z,65.84
2023-01-30T07:05:46.350Z,66.29
2023-01-30T07:08:13.919Z,66.38
2023-01-30T07:10:42.036Z,66.49
2023-01-30T07:13:09.502Z,65.97
2023-01-30T07:15:36.516Z,66.05
2023-01-30T07:18:03.617Z,66.64
2023-01-30T07:20:31.521Z,66.27
2023-01-30T07:22:58.747Z,66.20
2023-01-30T07:25:28.116Z,66.03
2023-01-30T07:28:00.795Z,66.70
2023-01-30T07:30:31.839Z,65.94
2023-01-30T07:33:00.265Z,66.53
2023-01-30T07:35:31.016Z,66.22
2023-01-30T07:37:58.527Z,65.63
2023-01-30T07:40:26.889Z,65.95
2023-01-30T07:43:06.491Z,65.77
2023-01-30T07:45:48.231Z,66.34
2023-01-30T07:48:18.024Z,65.53
2023-01-30T07:50:45.842Z,66.09
2023-01-30T07:53:15.828Z,65.86
2023-01-30T07:55:43.255Z,66.60
2023-01-30T07:58:14.655Z,66.16
2023-01-30T08:00:42.037Z,65.77
2023-01-30T08:03:16.868Z,66.00
2023-01-30T08:05:46.913Z,65.65
2023-01-30T08:08:14.544Z,65.83
2023-01-30T08:10:41.963Z,66.44
2023-01-30T08:13:08.945Z,66.17
2023-01-30T08:15:35.931Z,66.34
2023-01-30T08:18:02.915Z,66.07
2023-01-30T08:20:29.917Z,66.25
2023-01-30T08:22:59.230Z,65.75
2023-01-30T08:25:26.339Z,66.09
2023-01-30T08:27:53.919Z,65.75
2023-01-30T08:30:22.269Z,66.30
2023-01-30T08:32:49.449Z,66.37
2023-01-30T08:35:16.588Z,66.34
2023-01-30T08:37:43.865Z,66.01
2023-01-30T08:40:11.727Z,66.02
2023-01-30T08:42:39.789Z,65.68
2023-01-30T08:45:07.469Z,66.12
2023-01-30T08:47:35.720Z,66.71
2023-01-30T08:50:03.791Z,66.97
2023-01-30T08:52:33.030Z,66.78
2023-01-30T08:55:00.015Z,66.86
2023-01-30T08:57:27.038Z,66.90
2023-01-30T08:59:54.073Z,66.17
2023-01-30T09:02:21.312Z,66.34
2023-01-30T09:04:48.264Z,66.49
2023-01-30T09:07:15.365Z,66.39
2023-01-30T09:09:42.321Z,66.76
2023-01-30T09:12:09.341Z,66.50
2023-01-30T09:14:36.320Z,65.78
2023-01-30T09:17:03.279Z,66.21
2023-01-30T09:19:30.613Z,66.33
2023-01-30T09:21:57.650Z,66.43
2023-01-30T09:24:27.957Z,66.29
2023-01-30T09:26:57.706Z,66.39
2023-01-30T09:29:25.847Z,66.32
2023-01-30T09:31:53.358Z,66.17
2023-01-30T09:34:20.426Z,66.14
2023-01-30T09:36:47.383Z,66.22
2023-01-30T09:39:14.320Z,66.06
2023-01-30T09:42:05.394Z,65.97
2023-01-30T09:44:35.237Z,66.27
2023-01-30T09:47:08.252Z,66.33
2023-01-30T09:49:44.262Z,65.56
2023-01-30T09:52:43.305Z,65.67
2023-01-30T09:55:19.790Z,65.81
2023-01-30T09:57:51.990Z,65.97
2023-01-30T10:00:25.864Z,65.86
2023-01-30T10:03:21.403Z,65.80
2023-01-30T10:06:05.107Z,65.32
2023-01-30T10:09:00.717Z,64.97
2023-01-30T10:11:48.014Z,65.28
2023-01-30T10:14:36.475Z,65.06
2023-01-30T10:17:03.439Z,65.31
2023-01-30T10:19:50.212Z,65.35
2023-01-30T10:22:50.305Z,65.20
2023-01-30T10:25:24.508Z,65.03
2023-01-30T10:28:03.608Z,65.36
2023-01-30T10:30:31.151Z,65.72
2023-01-30T10:33:04.670Z,65.48
2023-01-30T10:35:36.084Z,65.62
2023-01-30T10:38:12.887Z,64.86
2023-01-30T10:40:46.171Z,64.82
2023-01-30T10:43:30.084Z,64.58
2023-01-30T10:46:10.405Z,64.54
2023-01-30T10:48:52.750Z,64.70
2023-01-30T10:51:34.856Z,64.68
2023-01-30T10:54:10.237Z,64.50
2023-01-30T10:57:14.188Z,64.48
2023-01-30T10:59:47.161Z,64.62
2023-01-30T11:02:40.779Z,64.43
2023-01-30T11:05:21.452Z,64.58
2023-01-30T11:07:49.380Z,65.25
2023-01-30T11:10:23.219Z,64.68
2023-01-30T11:12:58.704Z,64.43
2023-01-30T11:15:38.676Z,64.45
2023-01-30T11:19:16.263Z,64.30
2023-01-30T11:21:05.475Z,64.09
2023-01-30T11:23:44.941Z,64.01
2023-01-30T11:26:23.001Z,64.41
2023-01-30T11:28:50.061Z,64.23
2023-01-30T11:31:40.031Z,64.51
2023-01-30T11:34:17.709Z,64.38
2023-01-30T11:36:47.286Z,64.34
2023-01-30T11:39:14.567Z,64.29
2023-01-30T11:42:05.909Z,64.43
2023-01-30T11:44:36.168Z,64.74
2023-01-30T11:47:20.321Z,64.68
2023-01-30T11:50:01.968Z,64.76
2023-01-30T11:52:44.256Z,64.27
2023-01-30T11:55:15.695Z,65.13
2023-01-30T11:57:51.501Z,64.65
2023-01-30T12:00:29.511Z,64.76
2023-01-30T12:03:01.408Z,65.08
2023-01-30T12:05:37.001Z,65.20
2023-01-30T12:08:14.866Z,65.04
2023-01-30T12:10:44.356Z,65.12
2023-01-30T12:13:20.248Z,64.76
2023-01-30T12:15:52.953Z,64.62
2023-01-30T12:18:26.330Z,64.91
2023-01-30T12:21:00.419Z,64.78
2023-01-30T12:23:39.724Z,65.13
2023-01-30T12:26:25.793Z,64.79
2023-01-30T12:29:10.252Z,64.56
2023-01-30T12:31:42.057Z,64.89
2023-01-30T12:34:10.645Z,65.63
2023-01-30T12:37:05.186Z,65.90
2023-01-30T12:40:07.782Z,65.33
2023-01-30T12:42:47.945Z,65.70
2023-01-30T12:45:29.936Z,65.32
2023-01-30T12:48:08.847Z,65.59
2023-01-30T12:51:03.554Z,65.57
2023-01-30T12:53:42.642Z,65.66
2023-01-30T12:56:30.888Z,65.67
2023-01-30T12:59:03.914Z,65.25
2023-01-30T13:01:41.398Z,64.94
2023-01-30T13:04:23.779Z,65.40
2023-01-30T13:06:56.566Z,65.16
2023-01-30T13:09:44.766Z,65.40
2023-01-30T13:12:43.837Z,65.63
2023-01-30T13:15:21.714Z,65.56
2023-01-30T13:18:00.781Z,65.63
2023-01-30T13:20:39.903Z,65.93
2023-01-30T13:23:22.748Z,65.88
2023-01-30T13:26:02.084Z,65.55
2023-01-30T13:28:42.462Z,65.89
2023-01-30T13:31:20.057Z,65.46
2023-01-30T13:33:51.369Z,65.38
2023-01-30T13:36:23.322Z,65.68
2023-01-30T13:39:32.023Z,66.13
2023-01-30T13:42:02.039Z,65.89
2023-01-30T13:44:31.525Z,65.69
2023-01-30T13:47:27.768Z,65.83
2023-01-30T13:50:03.276Z,65.77
2023-01-30T13:52:41.088Z,66.05
2023-01-30T13:55:11.147Z,66.01
2023-01-30T13:57:45.460Z,66.13
2023-01-30T14:00:55.085Z,66.05
2023-01-30T14:03:31.790Z,65.81
2023-01-30T14:06:02.604Z,66.27
2023-01-30T14:08:50.670Z,66.89
2023-01-30T14:11:33.032Z,66.42
2023-01-30T14:14:04.574Z,66.56
2023-01-30T14:16:45.462Z,67.52
2023-01-30T14:19:28.675Z,66.83
2023-01-30T14:21:57.749Z,66.39
2023-01-30T14:24:25.192Z,66.17
2023-01-30T14:27:02.457Z,66.51
2023-01-30T14:29:38.514Z,66.56
2023-01-30T14:32:15.180Z,66.52
2023-01-30T14:34:44.158Z,66.51
2023-01-30T14:37:46.808Z,66.42
2023-01-30T14:40:22.786Z,66.05
2023-01-30T14:43:23.574Z,66.29
2023-01-30T14:45:53.221Z,66.75
2023-01-30T14:48:38.800Z,66.68
2023-01-30T14:51:34.629Z,66.73
2023-01-30T14:54:14.214Z,66.12
2023-01-30T14:57:04.187Z,65.80
2023-01-30T14:59:46.311Z,66.32
2023-01-30T15:02:13.345Z,66.31
2023-01-30T15:05:09.788Z,65.55
2023-01-30T15:07:43.242Z,65.81
2023-01-30T15:10:22.388Z,65.92
2023-01-30T15:13:13.745Z,65.57
2023-01-30T15:15:59.491Z,65.58
2023-01-30T15:19:02.720Z,65.40
2023-01-30T15:21:42.022Z,65.46
2023-01-30T15:24:18.504Z,65.03
2023-01-30T15:26:59.563Z,65.28
2023-01-30T15:29:56.040Z,65.04
2023-01-30T15:32:31.419Z,65.05
2023-01-30T15:35:16.684Z,65.31
2023-01-30T15:37:46.574Z,64.76
2023-01-30T15:40:16.623Z,64.62
2023-01-30T15:42:49.619Z,65.00
2023-01-30T15:45:24.415Z,64.89
2023-01-30T15:48:30.882Z,64.38
2023-01-30T15:51:00.483Z,64.69
2023-01-30T15:53:41.960Z,64.74
2023-01-30T15:56:11.824Z,64.66
2023-01-30T15:58:42.592Z,64.66
2023-01-30T16:01:11.383Z,64.36
2023-01-30T16:03:42.836Z,64.10
2023-01-30T16:06:24.688Z,64.16
2023-01-30T16:09:02.185Z,64.18
2023-01-30T16:11:39.416Z,64.50
2023-01-30T16:14:12.581Z,64.36
2023-01-30T16:16:44.529Z,64.07
2023-01-30T16:19:23.294Z,64.01
2023-01-30T16:21:50.311Z,64.01
2023-01-30T16:24:26.963Z,64.32
2023-01-30T16:27:00.027Z,63.75
2023-01-30T16:29:30.735Z,63.57
2023-01-30T16:31:58.186Z,63.37
2023-01-30T16:34:32.833Z,64.09
2023-01-30T16:37:23.058Z,63.46
2023-01-30T16:40:23.128Z,62.81
2023-01-30T16:43:02.016Z,63.29
2023-01-30T16:45:35.221Z,62.94
2023-01-30T16:48:35.410Z,63.44
2023-01-30T16:51:02.393Z,63.16
2023-01-30T16:53:32.277Z,63.68
2023-01-30T16:56:04.080Z,63.03
2023-01-30T16:58:34.222Z,62.97
2023-01-30T17:01:05.563Z,62.81
2023-01-30T17:03:37.077Z,62.98
2023-01-30T17:06:15.203Z,62.72
2023-01-30T17:08:54.300Z,62.74
2023-01-30T17:11:37.876Z,62.53
2023-01-30T17:14:20.203Z,62.53
2023-01-30T17:17:08.103Z,62.54
2023-01-30T17:19:36.887Z,62.48
2023-01-30T17:22:16.275Z,62.55
2023-01-30T17:24:43.293Z,62.80
2023-01-30T17:27:10.312Z,62.35
2023-01-30T17:29:44.990Z,62.32
2023-01-30T17:32:15.240Z,62.32
2023-01-30T17:34:42.622Z,61.97
2023-01-30T17:37:16.835Z,62.40
2023-01-30T17:39:44.089Z,62.11
2023-01-30T17:42:12.485Z,62.24
2023-01-30T17:44:39.819Z,61.76
2023-01-30T17:47:07.028Z,62.28
2023-01-30T17:49:34.014Z,62.15
2023-01-30T17:52:01.037Z,62.20
2023-01-30T17:54:30.161Z,62.44
2023-01-30T17:57:01.587Z,62.72
2023-01-30T17:59:28.769Z,62.29
2023-01-30T18:01:55.822Z,61.96
2023-01-30T18:04:23.081Z,62.74
2023-01-30T18:06:55.615Z,62.63
2023-01-30T18:09:24.652Z,62.69
2023-01-30T18:11:52.108Z,62.93
2023-01-30T18:14:19.440Z,62.85
2023-01-30T18:16:46.528Z,62.76
2023-01-30T18:19:15.729Z,63.14
2023-01-30T18:21:45.241Z,62.91
2023-01-30T18:24:13.773Z,63.04
2023-01-30T18:26:41.594Z,63.64
2023-01-30T18:29:09.899Z,62.99
2023-01-30T18:31:38.640Z,63.27
2023-01-30T18:34:07.231Z,63.50
2023-01-30T18:36:35.871Z,63.12
2023-01-30T18:39:03.969Z,63.28
2023-01-30T18:41:32.480Z,63.23
2023-01-30T18:44:02.319Z,63.38
2023-01-30T18:46:30.555Z,63.35
2023-01-30T18:48:58.438Z,63.25
2023-01-30T18:51:28.171Z,63.36
2023-01-30T18:53:55.774Z,63.19
2023-01-30T18:56:28.066Z,63.28
2023-01-30T18:58:56.544Z,62.90
2023-01-30T19:01:26.694Z,63.03
2023-01-30T19:04:01.965Z,62.70
2023-01-30T19:06:29.340Z,62.78
2023-01-30T19:08:57.604Z,62.63
2023-01-30T19:11:43.423Z,63.09
2023-01-30T19:14:10.864Z,62.74
2023-01-30T19:16:39.203Z,62.93
2023-01-30T19:19:07.788Z,63.21
2023-01-30T19:21:35.806Z,63.13
2023-01-30T19:24:04.219Z,62.96
2023-01-30T19:26:31.315Z,63.01
2023-01-30T19:28:58.480Z,63.22
2023-01-30T19:31:25.931Z,63.17
2023-01-30T19:33:56.096Z,63.31
2023-01-30T19:36:25.303Z,63.25
2023-01-30T19:38:52.846Z,62.96
2023-01-30T19:41:24.415Z,63.20
2023-01-30T19:43:53.255Z,62.87
2023-01-30T19:46:20.717Z,63.34
2023-01-30T19:48:49.046Z,62.87
2023-01-30T19:51:27.833Z,62.94
2023-01-30T19:54:06.781Z,63.33
2023-01-30T19:56:34.849Z,63.62
2023-01-30T19:59:02.478Z,63.38
2023-01-30T20:01:33.092Z,63.29
2023-01-30T20:04:02.046Z,63.50
2023-01-30T20:06:32.018Z,63.96
2023-01-30T20:09:05.484Z,63.88
2023-01-30T20:11:34.633Z,63.80
2023-01-30T20:14:02.510Z,64.07
2023-01-30T20:16:31.415Z,65.61
2023-01-30T20:19:12.991Z,65.20
2023-01-30T20:21:40.046Z,64.75
2023-01-30T20:24:07.492Z,64.58
2023-01-30T20:26:36.707Z,64.91
2023-01-30T20:29:04.975Z,64.84
2023-01-30T20:31:32.685Z,65.45
2023-01-30T20:34:04.970Z,66.08
2023-01-30T20:36:32.365Z,66.14
2023-01-30T20:39:04.418Z,66.17
2023-01-30T20:41:36.959Z,66.65
2023-01-30T20:44:06.287Z,66.60
2023-01-30T20:46:41.356Z,66.04
2023-01-30T20:49:20.355Z,66.29
2023-01-30T20:51:50.326Z,66.18
2023-01-30T20:54:18.878Z,65.91
2023-01-30T20:56:48.624Z,65.92
2023-01-30T20:59:18.507Z,66.31
2023-01-30T21:01:46.107Z,66.39
2023-01-30T21:04:15.519Z,66.83
2023-01-30T21:06:45.785Z,66.19
2023-01-30T21:09:23.975Z,67.01
2023-01-30T21:11:55.260Z,66.76
2023-01-30T21:14:29.563Z,66.02
2023-01-30T21:16:59.022Z,66.04
2023-01-30T21:19:27.038Z,66.46
2023-01-30T21:21:56.104Z,66.49
2023-01-30T21:24:26.515Z,66.20
2023-01-30T21:26:54.044Z,66.89
2023-01-30T21:29:24.650Z,67.18
2023-01-30T21:31:51.816Z,66.48
2023-01-30T21:34:18.912Z,66.46
2023-01-30T21:37:06.923Z,66.71
2023-01-30T21:39:53.961Z,65.78
2023-01-30T21:42:40.369Z,66.52
2023-01-30T21:45:08.066Z,66.01
2023-01-30T21:47:35.175Z,66.12
2023-01-30T21:50:02.363Z,66.02
2023-01-30T21:52:32.199Z,66.29
2023-01-30T21:54:59.501Z,65.98
2023-01-30T21:57:26.477Z,65.93
2023-01-30T21:59:53.562Z,66.15
2023-01-30T22:02:20.571Z,66.26
2023-01-30T22:04:47.515Z,67.01
2023-01-30T22:07:14.515Z,67.46
2023-01-30T22:09:41.475Z,67.17
2023-01-30T22:12:08.499Z,66.90
2023-01-30T22:14:36.441Z,67.04
2023-01-30T22:17:03.549Z,66.95
2023-01-30T22:19:35.666Z,66.97
2023-01-30T22:22:03.671Z,66.69
2023-01-30T22:24:30.823Z,66.31
2023-01-30T22:26:58.440Z,66.54
2023-01-30T22:29:25.533Z,66.39
2023-01-30T22:31:52.608Z,66.93
2023-01-30T22:34:19.691Z,66.71
2023-01-30T22:36:48.001Z,66.10
2023-01-30T22:39:14.958Z,66.07
2023-01-30T22:41:42.027Z,66.50
2023-01-30T22:44:10.826Z,66.84
2023-01-30T22:46:39.928Z,66.78
2023-01-30T22:49:09.220Z,66.31
2023-01-30T22:51:39.573Z,66.38
2023-01-30T22:54:15.722Z,67.04
2023-01-30T22:56:48.604Z,66.92
2023-01-30T22:59:15.865Z,66.71
2023-01-30T23:01:48.014Z,66.44
2023-01-30T23:04:17.724Z,66.30
2023-01-30T23:06:45.440Z,66.82
2023-01-30T23:09:16.632Z,66.71
2023-01-30T23:12:07.241Z,66.51
2023-01-30T23:14:34.895Z,66.79
2023-01-30T23:17:21.868Z,67.87
2023-01-30T23:19:48.843Z,67.38
2023-01-30T23:22:15.833Z,67.64
2023-01-30T23:24:42.808Z,67.23
2023-01-30T23:27:09.784Z,67.43
2023-01-30T23:29:37.074Z,67.52
2023-01-30T23:32:04.239Z,67.53
2023-01-30T23:34:31.352Z,67.55
2023-01-30T23:36:58.271Z,67.84
2023-01-30T23:39:25.370Z,67.77
2023-01-30T23:41:52.317Z,67.39
2023-01-30T23:44:19.321Z,66.98
2023-01-30T23:46:46.342Z,66.79
2023-01-30T23:49:14.935Z,67.41
2023-01-30T23:51:44.320Z,67.22
2023-01-30T23:54:12.678Z,67.43
2023-01-30T23:56:42.402Z,67.26
2023-01-30T23:59:09.754Z,67.05
